sensor_id;sensor_type;location;lat;lon;timestamp;P1;durP1;ratioP1;P2;durP2;ratioP2
15110;SDS011;7656;51.954;7.998;2022-09-16T00:01:48;0.70;;;0.67;;
15110;SDS011;7656;51.954;7.998;2022-09-16T00:06:15;2.97;;;0.70;;
15110;SDS011;7656;51.954;7.998;2022-09-16T00:10:45;0.97;;;0.80;;
15110;SDS011;7656;51.954;7.998;2022-09-16T00:15:07;1.90;;;0.87;;
15110;SDS011;7656;51.954;7.998;2022-09-16T00:19:29;0.70;;;0.70;;
15110;SDS011;7656;51.954;7.998;2022-09-16T00:23:51;1.27;;;0.50;;
15110;SDS011;7656;51.954;7.998;2022-09-16T00:28:12;2.43;;;1.10;;
15110;SDS011;7656;51.954;7.998;2022-09-16T00:32:33;2.07;;;1.07;;
15110;SDS011;7656;51.954;7.998;2022-09-16T00:36:55;4.07;;;0.90;;
15110;SDS011;7656;51.954;7.998;2022-09-16T00:41:17;0.70;;;0.70;;
15110;SDS011;7656;51.954;7.998;2022-09-16T00:45:47;3.03;;;0.97;;
15110;SDS011;7656;51.954;7.998;2022-09-16T00:55:19;3.13;;;0.70;;
15110;SDS011;7656;51.954;7.998;2022-09-16T00:59:46;1.50;;;0.67;;
15110;SDS011;7656;51.954;7.998;2022-09-16T01:04:15;1.63;;;0.60;;
15110;SDS011;7656;51.954;7.998;2022-09-16T01:08:42;2.03;;;0.50;;
15110;SDS011;7656;51.954;7.998;2022-09-16T01:13:05;2.00;;;1.00;;
15110;SDS011;7656;51.954;7.998;2022-09-16T01:26:59;2.23;;;0.77;;
15110;SDS011;7656;51.954;7.998;2022-09-16T01:31:52;1.47;;;0.80;;
15110;SDS011;7656;51.954;7.998;2022-09-16T01:41:21;0.90;;;0.77;;
15110;SDS011;7656;51.954;7.998;2022-09-16T01:45:54;2.87;;;1.17;;
15110;SDS011;7656;51.954;7.998;2022-09-16T01:51:06;3.70;;;1.47;;
15110;SDS011;7656;51.954;7.998;2022-09-16T01:55:53;2.50;;;1.10;;
15110;SDS011;7656;51.954;7.998;2022-09-16T02:00:22;3.00;;;1.30;;
15110;SDS011;7656;51.954;7.998;2022-09-16T02:04:53;2.27;;;1.20;;
15110;SDS011;7656;51.954;7.998;2022-09-16T02:09:25;1.47;;;1.37;;
15110;SDS011;7656;51.954;7.998;2022-09-16T02:14:04;4.40;;;1.27;;
15110;SDS011;7656;51.954;7.998;2022-09-16T02:18:33;2.40;;;1.13;;
15110;SDS011;7656;51.954;7.998;2022-09-16T02:23:02;1.57;;;1.00;;
15110;SDS011;7656;51.954;7.998;2022-09-16T02:27:30;1.23;;;1.00;;
15110;SDS011;7656;51.954;7.998;2022-09-16T02:31:53;4.23;;;1.13;;
15110;SDS011;7656;51.954;7.998;2022-09-16T02:36:19;3.20;;;0.93;;
15110;SDS011;7656;51.954;7.998;2022-09-16T02:40:44;2.10;;;1.00;;
15110;SDS011;7656;51.954;7.998;2022-09-16T02:45:11;1.10;;;0.90;;
15110;SDS011;7656;51.954;7.998;2022-09-16T02:54:29;1.37;;;0.80;;
15110;SDS011;7656;51.954;7.998;2022-09-16T02:58:56;1.17;;;1.07;;
15110;SDS011;7656;51.954;7.998;2022-09-16T03:03:17;2.67;;;1.07;;
15110;SDS011;7656;51.954;7.998;2022-09-16T03:07:39;2.67;;;1.00;;
15110;SDS011;7656;51.954;7.998;2022-09-16T03:16:31;0.70;;;0.63;;
15110;SDS011;7656;51.954;7.998;2022-09-16T03:21:09;1.70;;;1.33;;
15110;SDS011;7656;51.954;7.998;2022-09-16T03:30:07;1.20;;;1.10;;
15110;SDS011;7656;51.954;7.998;2022-09-16T03:34:38;2.20;;;1.10;;
15110;SDS011;7656;51.954;7.998;2022-09-16T03:39:11;1.50;;;1.20;;
15110;SDS011;7656;51.954;7.998;2022-09-16T03:43:33;2.30;;;1.40;;
15110;SDS011;7656;51.954;7.998;2022-09-16T03:47:55;3.83;;;1.33;;
15110;SDS011;7656;51.954;7.998;2022-09-16T03:52:16;4.30;;;1.33;;
15110;SDS011;7656;51.954;7.998;2022-09-16T03:56:39;2.50;;;1.40;;
15110;SDS011;7656;51.954;7.998;2022-09-16T04:01:00;2.57;;;1.40;;
15110;SDS011;7656;51.954;7.998;2022-09-16T04:05:21;2.83;;;2.10;;
15110;SDS011;7656;51.954;7.998;2022-09-16T04:09:43;3.37;;;1.80;;
15110;SDS011;7656;51.954;7.998;2022-09-16T04:14:04;2.93;;;1.70;;
15110;SDS011;7656;51.954;7.998;2022-09-16T04:18:26;4.27;;;1.90;;
15110;SDS011;7656;51.954;7.998;2022-09-16T04:22:50;2.53;;;1.47;;
15110;SDS011;7656;51.954;7.998;2022-09-16T04:27:11;4.10;;;2.60;;
15110;SDS011;7656;51.954;7.998;2022-09-16T04:31:32;3.20;;;2.00;;
15110;SDS011;7656;51.954;7.998;2022-09-16T04:35:53;3.03;;;2.27;;
15110;SDS011;7656;51.954;7.998;2022-09-16T04:40:31;4.77;;;1.90;;
15110;SDS011;7656;51.954;7.998;2022-09-16T04:44:53;6.77;;;2.20;;
15110;SDS011;7656;51.954;7.998;2022-09-16T04:49:14;6.27;;;2.13;;
15110;SDS011;7656;51.954;7.998;2022-09-16T04:53:36;3.73;;;2.27;;
15110;SDS011;7656;51.954;7.998;2022-09-16T04:58:03;7.10;;;2.70;;
15110;SDS011;7656;51.954;7.998;2022-09-16T05:02:24;8.33;;;2.40;;
15110;SDS011;7656;51.954;7.998;2022-09-16T05:06:45;4.27;;;1.63;;
15110;SDS011;7656;51.954;7.998;2022-09-16T05:11:07;7.00;;;1.90;;
15110;SDS011;7656;51.954;7.998;2022-09-16T05:15:30;2.90;;;2.10;;
15110;SDS011;7656;51.954;7.998;2022-09-16T05:19:53;3.53;;;1.50;;
15110;SDS011;7656;51.954;7.998;2022-09-16T05:24:14;3.10;;;1.90;;
15110;SDS011;7656;51.954;7.998;2022-09-16T05:28:35;2.60;;;1.80;;
15110;SDS011;7656;51.954;7.998;2022-09-16T05:32:56;4.67;;;1.83;;
15110;SDS011;7656;51.954;7.998;2022-09-16T05:37:18;6.13;;;1.93;;
15110;SDS011;7656;51.954;7.998;2022-09-16T05:41:39;5.47;;;1.87;;
15110;SDS011;7656;51.954;7.998;2022-09-16T05:46:00;3.93;;;2.00;;
15110;SDS011;7656;51.954;7.998;2022-09-16T05:50:22;3.23;;;1.47;;
15110;SDS011;7656;51.954;7.998;2022-09-16T05:54:44;2.60;;;1.37;;
15110;SDS011;7656;51.954;7.998;2022-09-16T05:59:05;3.73;;;1.47;;
15110;SDS011;7656;51.954;7.998;2022-09-16T06:03:26;4.70;;;1.50;;
15110;SDS011;7656;51.954;7.998;2022-09-16T06:07:48;2.50;;;1.07;;
15110;SDS011;7656;51.954;7.998;2022-09-16T06:12:09;5.13;;;1.50;;
15110;SDS011;7656;51.954;7.998;2022-09-16T06:16:31;1.53;;;1.20;;
15110;SDS011;7656;51.954;7.998;2022-09-16T06:20:53;1.90;;;1.10;;
15110;SDS011;7656;51.954;7.998;2022-09-16T06:25:14;4.03;;;1.17;;
15110;SDS011;7656;51.954;7.998;2022-09-16T06:29:35;1.27;;;1.17;;
15110;SDS011;7656;51.954;7.998;2022-09-16T06:33:57;3.33;;;1.03;;
15110;SDS011;7656;51.954;7.998;2022-09-16T06:38:18;5.30;;;1.20;;
15110;SDS011;7656;51.954;7.998;2022-09-16T06:42:39;3.27;;;0.90;;
15110;SDS011;7656;51.954;7.998;2022-09-16T06:47:02;1.33;;;1.13;;
15110;SDS011;7656;51.954;7.998;2022-09-16T06:51:24;2.87;;;1.10;;
15110;SDS011;7656;51.954;7.998;2022-09-16T06:55:47;2.27;;;0.87;;
15110;SDS011;7656;51.954;7.998;2022-09-16T07:00:09;1.20;;;0.80;;
15110;SDS011;7656;51.954;7.998;2022-09-16T07:04:31;1.80;;;0.90;;
15110;SDS011;7656;51.954;7.998;2022-09-16T07:08:54;3.03;;;1.10;;
15110;SDS011;7656;51.954;7.998;2022-09-16T07:13:16;3.57;;;1.80;;
15110;SDS011;7656;51.954;7.998;2022-09-16T07:17:37;2.03;;;0.90;;
15110;SDS011;7656;51.954;7.998;2022-09-16T07:21:58;1.30;;;0.97;;
15110;SDS011;7656;51.954;7.998;2022-09-16T07:26:20;7.37;;;1.00;;
15110;SDS011;7656;51.954;7.998;2022-09-16T07:30:45;2.23;;;0.90;;
15110;SDS011;7656;51.954;7.998;2022-09-16T07:35:07;1.53;;;1.00;;
15110;SDS011;7656;51.954;7.998;2022-09-16T07:39:28;1.20;;;1.00;;
15110;SDS011;7656;51.954;7.998;2022-09-16T07:43:49;1.33;;;0.82;;
15110;SDS011;7656;51.954;7.998;2022-09-16T07:48:10;1.25;;;1.02;;
15110;SDS011;7656;51.954;7.998;2022-09-16T07:52:32;1.05;;;0.80;;
15110;SDS011;7656;51.954;7.998;2022-09-16T07:56:53;1.63;;;1.52;;
15110;SDS011;7656;51.954;7.998;2022-09-16T08:01:15;1.02;;;0.90;;
15110;SDS011;7656;51.954;7.998;2022-09-16T08:05:36;1.73;;;0.82;;
15110;SDS011;7656;51.954;7.998;2022-09-16T08:09:57;2.05;;;1.00;;
15110;SDS011;7656;51.954;7.998;2022-09-16T08:14:18;2.42;;;1.17;;
15110;SDS011;7656;51.954;7.998;2022-09-16T08:18:40;1.77;;;1.05;;
15110;SDS011;7656;51.954;7.998;2022-09-16T08:23:02;1.70;;;0.90;;
15110;SDS011;7656;51.954;7.998;2022-09-16T08:27:23;0.77;;;0.77;;
15110;SDS011;7656;51.954;7.998;2022-09-16T08:31:44;1.23;;;1.02;;
15110;SDS011;7656;51.954;7.998;2022-09-16T08:36:07;0.93;;;0.90;;
15110;SDS011;7656;51.954;7.998;2022-09-16T08:40:36;2.17;;;1.38;;
15110;SDS011;7656;51.954;7.998;2022-09-16T08:49:44;1.60;;;1.15;;
15110;SDS011;7656;51.954;7.998;2022-09-16T08:54:23;2.25;;;1.27;;
15110;SDS011;7656;51.954;7.998;2022-09-16T08:59:11;4.97;;;1.40;;
15110;SDS011;7656;51.954;7.998;2022-09-16T09:03:39;2.63;;;1.17;;
15110;SDS011;7656;51.954;7.998;2022-09-16T09:08:06;4.72;;;1.80;;
15110;SDS011;7656;51.954;7.998;2022-09-16T09:12:48;2.72;;;1.70;;
15110;SDS011;7656;51.954;7.998;2022-09-16T09:22:23;3.00;;;1.20;;
15110;SDS011;7656;51.954;7.998;2022-09-16T09:27:36;2.90;;;1.02;;
15110;SDS011;7656;51.954;7.998;2022-09-16T09:32:23;2.17;;;0.98;;
15110;SDS011;7656;51.954;7.998;2022-09-16T09:46:51;2.90;;;1.20;;
15110;SDS011;7656;51.954;7.998;2022-09-16T09:51:19;3.17;;;1.17;;
15110;SDS011;7656;51.954;7.998;2022-09-16T09:56:14;1.20;;;1.10;;
15110;SDS011;7656;51.954;7.998;2022-09-16T10:00:41;2.80;;;0.98;;
15110;SDS011;7656;51.954;7.998;2022-09-16T10:05:03;2.45;;;1.00;;
15110;SDS011;7656;51.954;7.998;2022-09-16T10:09:24;1.05;;;0.88;;
15110;SDS011;7656;51.954;7.998;2022-09-16T10:18:13;6.07;;;1.25;;
15110;SDS011;7656;51.954;7.998;2022-09-16T10:22:51;1.20;;;1.10;;
15110;SDS011;7656;51.954;7.998;2022-09-16T10:27:22;2.55;;;1.40;;
15110;SDS011;7656;51.954;7.998;2022-09-16T10:31:46;2.03;;;1.50;;
15110;SDS011;7656;51.954;7.998;2022-09-16T10:36:09;3.33;;;1.00;;
15110;SDS011;7656;51.954;7.998;2022-09-16T10:40:48;2.00;;;1.00;;
15110;SDS011;7656;51.954;7.998;2022-09-16T10:45:29;1.20;;;1.10;;
15110;SDS011;7656;51.954;7.998;2022-09-16T10:49:57;2.35;;;1.05;;
15110;SDS011;7656;51.954;7.998;2022-09-16T10:54:23;1.67;;;1.10;;
15110;SDS011;7656;51.954;7.998;2022-09-16T10:58:47;2.38;;;1.10;;
15110;SDS011;7656;51.954;7.998;2022-09-16T11:31:30;1.92;;;1.00;;
15110;SDS011;7656;51.954;7.998;2022-09-16T11:40:45;3.40;;;0.95;;
15110;SDS011;7656;51.954;7.998;2022-09-16T11:45:40;2.70;;;1.35;;
15110;SDS011;7656;51.954;7.998;2022-09-16T11:50:31;3.80;;;0.90;;
15110;SDS011;7656;51.954;7.998;2022-09-16T11:55:11;2.70;;;0.80;;
15110;SDS011;7656;51.954;7.998;2022-09-16T12:04:44;1.17;;;1.08;;
15110;SDS011;7656;51.954;7.998;2022-09-16T12:09:17;2.67;;;0.90;;
15110;SDS011;7656;51.954;7.998;2022-09-16T12:13:50;1.03;;;0.50;;
15110;SDS011;7656;51.954;7.998;2022-09-16T12:18:19;1.30;;;0.87;;
15110;SDS011;7656;51.954;7.998;2022-09-16T12:22:51;1.07;;;0.47;;
15110;SDS011;7656;51.954;7.998;2022-09-16T12:27:26;3.33;;;0.97;;
15110;SDS011;7656;51.954;7.998;2022-09-16T12:32:06;1.73;;;0.77;;
15110;SDS011;7656;51.954;7.998;2022-09-16T12:36:34;1.92;;;0.82;;
15110;SDS011;7656;51.954;7.998;2022-09-16T12:46:29;0.60;;;0.60;;
15110;SDS011;7656;51.954;7.998;2022-09-16T13:04:42;5.30;;;1.00;;
15110;SDS011;7656;51.954;7.998;2022-09-16T13:09:19;4.32;;;1.13;;
15110;SDS011;7656;51.954;7.998;2022-09-16T13:13:55;2.05;;;0.70;;
15110;SDS011;7656;51.954;7.998;2022-09-16T13:18:25;3.15;;;1.00;;
15110;SDS011;7656;51.954;7.998;2022-09-16T13:23:06;1.90;;;0.88;;
15110;SDS011;7656;51.954;7.998;2022-09-16T13:27:34;5.20;;;1.58;;
15110;SDS011;7656;51.954;7.998;2022-09-16T13:31:58;1.55;;;0.80;;
15110;SDS011;7656;51.954;7.998;2022-09-16T13:50:24;0.65;;;0.65;;
15110;SDS011;7656;51.954;7.998;2022-09-16T13:54:47;3.80;;;1.00;;
15110;SDS011;7656;51.954;7.998;2022-09-16T14:13:47;2.85;;;0.77;;
15110;SDS011;7656;51.954;7.998;2022-09-16T14:18:14;3.47;;;0.95;;
15110;SDS011;7656;51.954;7.998;2022-09-16T14:22:39;2.28;;;1.13;;
15110;SDS011;7656;51.954;7.998;2022-09-16T14:27:04;2.17;;;0.95;;
15110;SDS011;7656;51.954;7.998;2022-09-16T14:31:37;2.45;;;1.00;;
15110;SDS011;7656;51.954;7.998;2022-09-16T14:36:08;3.83;;;0.80;;
15110;SDS011;7656;51.954;7.998;2022-09-16T14:40:45;6.50;;;1.90;;
15110;SDS011;7656;51.954;7.998;2022-09-16T14:45:12;4.03;;;1.10;;
15110;SDS011;7656;51.954;7.998;2022-09-16T14:49:36;2.30;;;1.33;;
15110;SDS011;7656;51.954;7.998;2022-09-16T14:53:58;2.93;;;1.27;;
15110;SDS011;7656;51.954;7.998;2022-09-16T14:58:19;4.87;;;1.53;;
15110;SDS011;7656;51.954;7.998;2022-09-16T15:02:44;3.73;;;1.00;;
15110;SDS011;7656;51.954;7.998;2022-09-16T15:07:14;2.10;;;0.93;;
15110;SDS011;7656;51.954;7.998;2022-09-16T15:11:52;3.73;;;0.90;;
15110;SDS011;7656;51.954;7.998;2022-09-16T15:16:17;3.47;;;0.97;;
15110;SDS011;7656;51.954;7.998;2022-09-16T15:20:42;2.30;;;0.63;;
15110;SDS011;7656;51.954;7.998;2022-09-16T15:25:23;2.17;;;0.60;;
15110;SDS011;7656;51.954;7.998;2022-09-16T15:29:52;2.50;;;0.90;;
15110;SDS011;7656;51.954;7.998;2022-09-16T15:34:19;3.63;;;0.77;;
15110;SDS011;7656;51.954;7.998;2022-09-16T15:38:45;2.30;;;0.80;;
15110;SDS011;7656;51.954;7.998;2022-09-16T15:43:19;4.40;;;1.00;;
15110;SDS011;7656;51.954;7.998;2022-09-16T15:47:52;3.13;;;0.93;;
15110;SDS011;7656;51.954;7.998;2022-09-16T15:52:20;10.03;;;1.07;;
15110;SDS011;7656;51.954;7.998;2022-09-16T15:56:58;2.73;;;0.70;;
15110;SDS011;7656;51.954;7.998;2022-09-16T16:01:52;1.83;;;0.93;;
15110;SDS011;7656;51.954;7.998;2022-09-16T16:06:16;4.13;;;0.70;;
15110;SDS011;7656;51.954;7.998;2022-09-16T16:10:37;5.03;;;0.70;;
15110;SDS011;7656;51.954;7.998;2022-09-16T16:14:59;2.77;;;0.60;;
15110;SDS011;7656;51.954;7.998;2022-09-16T16:19:20;2.33;;;0.93;;
15110;SDS011;7656;51.954;7.998;2022-09-16T16:23:42;4.17;;;0.70;;
15110;SDS011;7656;51.954;7.998;2022-09-16T16:28:04;3.43;;;1.00;;
15110;SDS011;7656;51.954;7.998;2022-09-16T16:32:25;2.33;;;1.00;;
15110;SDS011;7656;51.954;7.998;2022-09-16T16:36:46;4.37;;;1.00;;
15110;SDS011;7656;51.954;7.998;2022-09-16T16:41:07;1.80;;;0.87;;
15110;SDS011;7656;51.954;7.998;2022-09-16T16:45:30;2.83;;;0.80;;
15110;SDS011;7656;51.954;7.998;2022-09-16T16:49:51;1.50;;;0.70;;
15110;SDS011;7656;51.954;7.998;2022-09-16T16:54:12;1.80;;;0.70;;
15110;SDS011;7656;51.954;7.998;2022-09-16T16:58:34;4.00;;;1.33;;
15110;SDS011;7656;51.954;7.998;2022-09-16T17:02:56;3.20;;;1.20;;
15110;SDS011;7656;51.954;7.998;2022-09-16T17:07:17;3.07;;;1.40;;
15110;SDS011;7656;51.954;7.998;2022-09-16T17:11:58;2.73;;;0.80;;
15110;SDS011;7656;51.954;7.998;2022-09-16T17:16:21;5.03;;;1.00;;
15110;SDS011;7656;51.954;7.998;2022-09-16T17:20:44;1.77;;;0.80;;
15110;SDS011;7656;51.954;7.998;2022-09-16T17:25:05;5.87;;;0.90;;
15110;SDS011;7656;51.954;7.998;2022-09-16T17:29:26;3.30;;;1.00;;
15110;SDS011;7656;51.954;7.998;2022-09-16T17:33:48;4.17;;;1.10;;
15110;SDS011;7656;51.954;7.998;2022-09-16T17:38:12;4.87;;;1.20;;
15110;SDS011;7656;51.954;7.998;2022-09-16T17:42:33;3.67;;;1.10;;
15110;SDS011;7656;51.954;7.998;2022-09-16T17:46:55;4.90;;;1.13;;
15110;SDS011;7656;51.954;7.998;2022-09-16T17:51:16;5.90;;;1.10;;
15110;SDS011;7656;51.954;7.998;2022-09-16T17:55:38;4.07;;;1.27;;
15110;SDS011;7656;51.954;7.998;2022-09-16T17:59:59;5.70;;;1.40;;
15110;SDS011;7656;51.954;7.998;2022-09-16T18:04:20;4.97;;;1.20;;
15110;SDS011;7656;51.954;7.998;2022-09-16T18:08:41;6.23;;;1.50;;
15110;SDS011;7656;51.954;7.998;2022-09-16T18:13:03;3.67;;;1.20;;
15110;SDS011;7656;51.954;7.998;2022-09-16T18:17:25;7.07;;;1.33;;
15110;SDS011;7656;51.954;7.998;2022-09-16T18:21:46;2.13;;;0.90;;
15110;SDS011;7656;51.954;7.998;2022-09-16T18:26:08;1.77;;;1.10;;
15110;SDS011;7656;51.954;7.998;2022-09-16T18:30:32;3.80;;;1.33;;
15110;SDS011;7656;51.954;7.998;2022-09-16T18:34:53;6.23;;;1.77;;
15110;SDS011;7656;51.954;7.998;2022-09-16T18:39:15;5.57;;;1.50;;
15110;SDS011;7656;51.954;7.998;2022-09-16T18:43:37;2.27;;;0.83;;
15110;SDS011;7656;51.954;7.998;2022-09-16T18:48:00;1.83;;;0.90;;
15110;SDS011;7656;51.954;7.998;2022-09-16T18:52:21;4.27;;;1.17;;
15110;SDS011;7656;51.954;7.998;2022-09-16T18:56:42;3.63;;;1.17;;
15110;SDS011;7656;51.954;7.998;2022-09-16T19:01:50;3.90;;;1.00;;
15110;SDS011;7656;51.954;7.998;2022-09-16T19:05:54;6.07;;;1.20;;
15110;SDS011;7656;51.954;7.998;2022-09-16T19:10:15;4.67;;;0.80;;
15110;SDS011;7656;51.954;7.998;2022-09-16T19:14:37;3.17;;;1.00;;
15110;SDS011;7656;51.954;7.998;2022-09-16T19:18:59;2.33;;;1.00;;
15110;SDS011;7656;51.954;7.998;2022-09-16T19:23:21;4.73;;;1.13;;
15110;SDS011;7656;51.954;7.998;2022-09-16T19:27:43;3.07;;;1.00;;
15110;SDS011;7656;51.954;7.998;2022-09-16T19:32:04;3.07;;;0.90;;
15110;SDS011;7656;51.954;7.998;2022-09-16T19:36:26;1.73;;;0.50;;
15110;SDS011;7656;51.954;7.998;2022-09-16T19:40:50;0.50;;;0.40;;
15110;SDS011;7656;51.954;7.998;2022-09-16T19:45:22;2.17;;;0.90;;
15110;SDS011;7656;51.954;7.998;2022-09-16T19:49:43;1.77;;;0.57;;
15110;SDS011;7656;51.954;7.998;2022-09-16T19:54:04;3.40;;;1.13;;
15110;SDS011;7656;51.954;7.998;2022-09-16T19:58:26;1.83;;;0.80;;
15110;SDS011;7656;51.954;7.998;2022-09-16T20:02:50;2.97;;;1.00;;
15110;SDS011;7656;51.954;7.998;2022-09-16T20:07:11;5.17;;;0.60;;
15110;SDS011;7656;51.954;7.998;2022-09-16T20:11:36;4.27;;;0.87;;
15110;SDS011;7656;51.954;7.998;2022-09-16T20:16:05;0.80;;;0.70;;
15110;SDS011;7656;51.954;7.998;2022-09-16T20:20:28;1.07;;;0.70;;
15110;SDS011;7656;51.954;7.998;2022-09-16T20:24:49;3.87;;;0.70;;
15110;SDS011;7656;51.954;7.998;2022-09-16T20:29:10;2.87;;;0.77;;
15110;SDS011;7656;51.954;7.998;2022-09-16T20:33:31;1.57;;;0.80;;
15110;SDS011;7656;51.954;7.998;2022-09-16T20:37:52;0.90;;;0.77;;
15110;SDS011;7656;51.954;7.998;2022-09-16T20:42:14;2.77;;;1.00;;
15110;SDS011;7656;51.954;7.998;2022-09-16T20:46:36;2.73;;;0.93;;
15110;SDS011;7656;51.954;7.998;2022-09-16T20:51:05;5.90;;;1.17;;
15110;SDS011;7656;51.954;7.998;2022-09-16T20:55:32;1.80;;;0.83;;
15110;SDS011;7656;51.954;7.998;2022-09-16T20:59:53;1.13;;;0.80;;
15110;SDS011;7656;51.954;7.998;2022-09-16T21:04:17;2.93;;;0.80;;
15110;SDS011;7656;51.954;7.998;2022-09-16T21:08:39;2.47;;;1.27;;
15110;SDS011;7656;51.954;7.998;2022-09-16T21:13:02;2.60;;;0.90;;
15110;SDS011;7656;51.954;7.998;2022-09-16T21:17:24;3.27;;;0.93;;
15110;SDS011;7656;51.954;7.998;2022-09-16T21:21:47;1.40;;;1.07;;
15110;SDS011;7656;51.954;7.998;2022-09-16T21:26:11;1.63;;;0.90;;
15110;SDS011;7656;51.954;7.998;2022-09-16T21:30:33;3.03;;;0.90;;
15110;SDS011;7656;51.954;7.998;2022-09-16T21:34:56;2.73;;;0.77;;
15110;SDS011;7656;51.954;7.998;2022-09-16T21:39:19;5.13;;;1.30;;
15110;SDS011;7656;51.954;7.998;2022-09-16T21:43:44;3.03;;;1.17;;
15110;SDS011;7656;51.954;7.998;2022-09-16T21:48:10;4.00;;;1.07;;
15110;SDS011;7656;51.954;7.998;2022-09-16T21:52:35;3.33;;;1.10;;
15110;SDS011;7656;51.954;7.998;2022-09-16T21:56:56;3.80;;;1.00;;
15110;SDS011;7656;51.954;7.998;2022-09-16T22:01:19;5.47;;;1.30;;
15110;SDS011;7656;51.954;7.998;2022-09-16T22:05:42;1.97;;;1.07;;
15110;SDS011;7656;51.954;7.998;2022-09-16T22:10:03;2.53;;;0.80;;
15110;SDS011;7656;51.954;7.998;2022-09-16T22:14:25;2.33;;;0.97;;
15110;SDS011;7656;51.954;7.998;2022-09-16T22:18:46;1.67;;;0.70;;
15110;SDS011;7656;51.954;7.998;2022-09-16T22:23:08;2.13;;;0.80;;
15110;SDS011;7656;51.954;7.998;2022-09-16T22:27:29;2.03;;;0.93;;
15110;SDS011;7656;51.954;7.998;2022-09-16T22:31:50;3.73;;;1.13;;
15110;SDS011;7656;51.954;7.998;2022-09-16T22:36:13;4.37;;;0.90;;
15110;SDS011;7656;51.954;7.998;2022-09-16T22:40:37;1.37;;;0.73;;
15110;SDS011;7656;51.954;7.998;2022-09-16T22:44:58;3.87;;;0.93;;
15110;SDS011;7656;51.954;7.998;2022-09-16T22:49:20;2.67;;;0.97;;
15110;SDS011;7656;51.954;7.998;2022-09-16T22:53:41;2.87;;;1.17;;
15110;SDS011;7656;51.954;7.998;2022-09-16T22:58:03;3.13;;;0.90;;
15110;SDS011;7656;51.954;7.998;2022-09-16T23:02:27;1.63;;;0.80;;
15110;SDS011;7656;51.954;7.998;2022-09-16T23:06:48;2.27;;;0.83;;
15110;SDS011;7656;51.954;7.998;2022-09-16T23:11:11;2.67;;;0.80;;
15110;SDS011;7656;51.954;7.998;2022-09-16T23:15:36;4.60;;;1.27;;
15110;SDS011;7656;51.954;7.998;2022-09-16T23:19:57;2.33;;;0.90;;
15110;SDS011;7656;51.954;7.998;2022-09-16T23:24:19;4.30;;;1.40;;
15110;SDS011;7656;51.954;7.998;2022-09-16T23:28:41;2.70;;;1.03;;
15110;SDS011;7656;51.954;7.998;2022-09-16T23:33:03;3.03;;;1.00;;
15110;SDS011;7656;51.954;7.998;2022-09-16T23:37:24;3.50;;;1.50;;
15110;SDS011;7656;51.954;7.998;2022-09-16T23:41:46;3.30;;;1.20;;
15110;SDS011;7656;51.954;7.998;2022-09-16T23:46:10;3.60;;;0.90;;
15110;SDS011;7656;51.954;7.998;2022-09-16T23:50:34;2.00;;;1.07;;
15110;SDS011;7656;51.954;7.998;2022-09-16T23:54:55;2.73;;;1.23;;
15110;SDS011;7656;51.954;7.998;2022-09-16T23:59:17;2.60;;;0.87;;
